This is the latest recevied weather packets stored in our database for station/object K3PPP. If no packets are shown the sender has not sent any weather packets the latest 10 day(s).
| Time | Temp. | Humidity | Pressure | Rain* | Wind** | Luminosity | Snow |
|---|---|---|---|---|---|---|---|
| 1777566355 | 6.11° C | 92% | 1012.1 hPa | 0 mm | - | 152 W/m² | - |
| 1777566052 | 6.11° C | 92% | 1011.7 hPa | 0 mm | - | 177 W/m² | - |
| 1777565748 | 6.67° C | 89% | 1011.7 hPa | 0 mm | - | 99 W/m² | - |
| 1777565444 | 8.33° C | 85% | 1011.6 hPa | 0 mm | - | 161 W/m² | - |
| 1777565140 | 8.33° C | 87% | 1011.6 hPa | 0 mm | - | 496 W/m² | - |
| 1777564837 | 7.22° C | 89% | 1011.6 hPa | 0 mm | - | 631 W/m² | - |
| 1777564532 | 6.67° C | 88% | 1011.7 hPa | 0 mm | - | 684 W/m² | - |
| 1777564222 | 7.22° C | 84% | 1011.5 hPa | 0 mm | - | 179 W/m² | - |
| 1777563919 | 7.22° C | 85% | 1011.4 hPa | 0 mm | - | 336 W/m² | - |
| 1777563615 | 6.67° C | 88% | 1011.5 hPa | 0 mm | - | 326 W/m² | - |
| 1777563314 | 6.67° C | 89% | 1011.5 hPa | 0 mm | - | 185 W/m² | - |
| 1777563011 | 6.67° C | 88% | 1011.5 hPa | 0 mm | - | 55 W/m² | - |
| 1777562707 | 7.78° C | 84% | 1011.4 hPa | 0 mm | - | 38 W/m² | - |
| 1777562406 | 7.78° C | 79% | 1011.1 hPa | 0 mm | - | 131 W/m² | - |
| 1777562102 | 8.33° C | 78% | 1010.9 hPa | 0 mm | - | 136 W/m² | - |
| 1777561800 | 9.44° C | 78% | 1010.9 hPa | 0 mm | - | 157 W/m² | - |
| 1777561495 | 8.89° C | 77% | 1010.9 hPa | 0 mm | - | 368 W/m² | - |
| 1777561190 | 8.89° C | 75% | 1011 hPa | 0 mm | - | 316 W/m² | - |
| 1777560885 | 8.89° C | 74% | 1010.9 hPa | 0 mm | - | 790 W/m² | - |
| 1777560584 | 8.33° C | 78% | 1011 hPa | 0 mm | - | 735 W/m² | - |
| 1777560282 | 7.78° C | 80% | 1011 hPa | 0 mm | - | 231 W/m² | - |
| 1777559979 | 7.22° C | 83% | 1011.1 hPa | 0 mm | - | 258 W/m² | - |
| 1777559679 | 6.67° C | 83% | 1011.1 hPa | 0 mm | - | 238 W/m² | - |
| 1777559377 | 6.67° C | 84% | 1011 hPa | 0 mm | - | 246 W/m² | - |
| 1777559073 | 7.22° C | 86% | 1011.1 hPa | 0 mm | - | 235 W/m² | - |
* Rain latest hour (hover to see other rain measurements)
** Current wind speed in m/s (hover to see current wind gust speed)